Time;durP1;ratioP1;P1;durP2;ratioP2;P2;SDS_P1;SDS_P2;PMS_P1;PMS_P2;Temp;Humidity;BMP_temperature;BMP_pressure;BME280_temperature;BME280_humidity;BME280_pressure;Samples;Min_cycle;Max_cycle;Signal;HPM_P1;HPM_P2
2021/05/29 00:02:03;;;;;;;10.30;4.65;;;13.50;56.00;;;;;;5030577;28;20029;-62
2021/05/29 00:04:28;;;;;;;9.20;5.63;;;13.40;56.20;;;;;;5030952;28;20394;-62
2021/05/29 00:06:54;;;;;;;8.48;5.55;;;13.50;56.30;;;;;;5030672;28;20026;-62
2021/05/29 00:09:19;;;;;;;9.43;5.18;;;13.50;56.50;;;;;;5030472;28;20029;-62
2021/05/29 00:11:45;;;;;;;8.55;5.35;;;13.40;56.70;;;;;;5030720;28;20075;-62
2021/05/29 00:14:10;;;;;;;10.45;4.90;;;13.40;56.60;;;;;;5030684;28;20026;-62
2021/05/29 00:16:36;;;;;;;7.78;5.32;;;13.30;57.00;;;;;;5030425;28;20022;-62
2021/05/29 00:19:01;;;;;;;7.93;5.50;;;13.30;57.10;;;;;;5030467;28;20037;-62
2021/05/29 00:21:27;;;;;;;9.20;4.65;;;13.30;57.10;;;;;;5030830;28;20025;-62
2021/05/29 00:23:52;;;;;;;8.73;4.93;;;13.30;57.40;;;;;;5012636;28;20033;-63
2021/05/29 00:26:18;;;;;;;9.13;4.90;;;13.20;57.50;;;;;;5029660;28;20143;-62
2021/05/29 00:28:43;;;;;;;10.25;5.18;;;13.20;57.70;;;;;;5030656;28;20379;-62
2021/05/29 00:31:09;;;;;;;8.40;5.40;;;13.20;58.00;;;;;;5029879;28;20472;-62
2021/05/29 00:33:34;;;;;;;10.55;5.93;;;13.20;58.20;;;;;;5030543;28;20029;-62
2021/05/29 00:36:00;;;;;;;9.35;5.40;;;13.20;58.30;;;;;;5030319;28;20033;-63
2021/05/29 00:38:26;;;;;;;9.10;4.90;;;13.10;58.50;;;;;;5030350;28;20026;-62
2021/05/29 00:40:51;;;;;;;9.95;5.18;;;13.10;58.80;;;;;;5029749;28;20056;-62
2021/05/29 00:43:17;;;;;;;9.13;4.97;;;13.10;59.20;;;;;;5030106;28;20034;-62
2021/05/29 00:45:42;;;;;;;8.85;5.53;;;13.00;59.10;;;;;;5029985;28;20033;-62
2021/05/29 00:48:08;;;;;;;11.02;5.82;;;12.90;59.20;;;;;;5029851;28;20025;-62
2021/05/29 00:50:34;;;;;;;12.32;6.30;;;12.90;59.50;;;;;;5029789;28;20112;-62
2021/05/29 00:52:59;;;;;;;9.27;5.70;;;12.90;60.30;;;;;;5030180;28;20029;-62
2021/05/29 00:55:25;;;;;;;14.75;5.90;;;12.90;60.10;;;;;;5030023;28;20036;-62
2021/05/29 00:57:51;;;;;;;10.20;5.10;;;12.90;60.20;;;;;;5029624;28;20041;-62
2021/05/29 01:00:19;;;;;;;10.27;5.88;;;12.90;60.00;;;;;;5012089;28;20064;-62
2021/05/29 01:02:48;;;;;;;11.00;5.88;;;12.80;60.30;;;;;;5029673;28;20033;-62
2021/05/29 01:05:15;;;;;;;9.52;5.95;;;12.80;60.90;;;;;;5029911;28;20108;-62
2021/05/29 01:07:41;;;;;;;9.10;6.22;;;12.80;61.20;;;;;;5029926;28;20471;-62
2021/05/29 01:10:07;;;;;;;12.25;6.18;;;12.70;61.70;;;;;;5029336;28;20036;-62
2021/05/29 01:12:33;;;;;;;6.55;4.80;;;12.60;61.70;;;;;;5029361;28;20388;-62
2021/05/29 01:14:59;;;;;;;12.45;5.03;;;12.60;62.10;;;;;;5029545;28;20018;-62
2021/05/29 01:17:26;;;;;;;11.88;5.28;;;12.50;61.70;;;;;;5029660;28;20101;-63
2021/05/29 01:19:52;;;;;;;8.45;5.13;;;12.50;61.70;;;;;;5029309;28;20502;-63
2021/05/29 01:22:36;;;;;;;6.43;5.00;;;12.50;61.70;;;;;;5029301;28;20049;-63
2021/05/29 01:25:09;;;;;;;7.78;4.85;;;12.50;61.80;;;;;;5029223;28;20096;-62
2021/05/29 01:27:35;;;;;;;9.90;6.03;;;12.50;61.80;;;;;;5029200;28;20026;-62
2021/05/29 01:30:01;;;;;;;13.13;6.53;;;12.50;61.90;;;;;;5029147;28;20028;-62
2021/05/29 01:32:33;;;;;;;14.38;6.75;;;12.50;62.10;;;;;;5029558;28;20048;-63
2021/05/29 01:35:00;;;;;;;14.48;6.85;;;12.40;62.10;;;;;;5029477;28;20021;-63
2021/05/29 01:37:25;;;;;;;10.55;7.30;;;12.40;62.50;;;;;;5029192;28;20030;-63
2021/05/29 01:39:52;;;;;;;11.52;7.40;;;12.30;62.90;;;;;;5028621;28;20411;-63
2021/05/29 01:42:18;;;;;;;12.05;7.35;;;12.30;63.40;;;;;;5028921;28;20029;-63
2021/05/29 01:44:44;;;;;;;11.00;6.85;;;12.20;63.70;;;;;;5029212;28;20387;-63
2021/05/29 01:47:09;;;;;;;9.90;6.55;;;12.10;63.90;;;;;;4995136;28;20096;-63
2021/05/29 01:49:36;;;;;;;10.68;6.40;;;12.10;64.40;;;;;;5028848;28;20515;-62
2021/05/29 01:52:01;;;;;;;12.95;5.85;;;12.00;64.40;;;;;;5028710;28;20021;-63
2021/05/29 01:54:27;;;;;;;12.07;6.68;;;12.00;64.60;;;;;;5029238;28;20113;-62
2021/05/29 01:56:54;;;;;;;9.35;5.93;;;12.00;65.10;;;;;;5028717;28;20028;-63
2021/05/29 01:59:19;;;;;;;10.57;6.55;;;11.90;65.20;;;;;;5028548;28;20582;-63
2021/05/29 02:01:45;;;;;;;11.18;6.40;;;11.90;65.30;;;;;;5028690;28;20025;-63
2021/05/29 02:04:10;;;;;;;12.65;6.90;;;11.90;65.40;;;;;;5029076;28;20033;-63
2021/05/29 02:06:36;;;;;;;13.10;6.53;;;11.90;65.70;;;;;;5028483;28;20025;-63
2021/05/29 02:09:01;;;;;;;12.70;6.53;;;11.80;65.90;;;;;;5028508;28;20022;-63
2021/05/29 02:11:27;;;;;;;13.65;6.53;;;11.80;65.80;;;;;;5028750;28;20032;-63
2021/05/29 02:13:52;;;;;;;12.57;6.25;;;11.80;65.90;;;;;;5028297;28;20067;-62
2021/05/29 02:16:18;;;;;;;13.90;6.43;;;11.80;66.00;;;;;;5028432;28;20680;-62
2021/05/29 02:18:43;;;;;;;11.52;6.78;;;11.80;66.20;;;;;;5028687;28;20022;-62
2021/05/29 02:21:11;;;;;;;13.50;6.88;;;11.80;66.00;;;;;;5028467;28;20030;-62
2021/05/29 02:23:38;;;;;;;14.57;7.63;;;11.80;66.20;;;;;;5028258;28;20065;-62
2021/05/29 02:26:11;;;;;;;12.35;7.47;;;11.80;66.20;;;;;;5028320;28;20049;-61
2021/05/29 02:28:36;;;;;;;12.77;7.22;;;11.70;66.30;;;;;;5028252;28;20033;-61
2021/05/29 02:31:04;;;;;;;12.65;6.72;;;11.70;66.40;;;;;;5028247;28;20029;-62
2021/05/29 02:33:29;;;;;;;11.18;7.22;;;11.70;66.50;;;;;;5028359;28;20053;-62
2021/05/29 02:35:55;;;;;;;13.13;7.45;;;11.60;66.70;;;;;;5028523;28;20056;-62
2021/05/29 02:38:20;;;;;;;13.57;7.57;;;11.60;66.80;;;;;;5028047;28;20582;-62
2021/05/29 02:40:46;;;;;;;15.13;8.43;;;11.60;66.90;;;;;;5027992;28;20073;-62
2021/05/29 02:43:12;;;;;;;15.05;8.18;;;11.60;66.90;;;;;;5028535;28;20022;-62
2021/05/29 02:45:41;;;;;;;12.18;6.95;;;11.60;67.40;;;;;;5027995;28;20047;-62
2021/05/29 02:48:13;;;;;;;14.38;7.10;;;11.60;67.60;;;;;;5010837;28;20037;-62
2021/05/29 02:50:42;;;;;;;11.25;7.05;;;11.60;68.00;;;;;;5029802;28;20357;-62
2021/05/29 02:53:08;;;;;;;14.05;7.38;;;11.50;68.40;;;;;;5032214;28;20060;-62
2021/05/29 02:55:34;;;;;;;11.95;6.43;;;11.50;68.90;;;;;;5032027;28;20093;-62
2021/05/29 02:57:59;;;;;;;13.05;7.63;;;11.50;69.00;;;;;;5032221;28;20124;-62
2021/05/29 03:00:28;;;;;;;13.95;6.63;;;11.50;69.20;;;;;;5032366;28;20078;-63
2021/05/29 03:02:54;;;;;;;12.93;6.78;;;11.40;69.70;;;;;;5014330;28;20044;-63
2021/05/29 03:05:19;;;;;;;10.68;6.82;;;11.40;69.50;;;;;;5031849;28;20056;-63
2021/05/29 03:07:46;;;;;;;14.93;7.50;;;11.40;69.80;;;;;;5031928;28;20076;-63
2021/05/29 03:10:13;;;;;;;11.88;6.78;;;11.40;70.00;;;;;;5032151;28;20052;-63
2021/05/29 03:12:38;;;;;;;12.40;7.18;;;11.40;69.70;;;;;;5031702;28;20499;-63
2021/05/29 03:15:24;;;;;;;14.73;7.18;;;11.40;69.70;;;;;;5031867;28;20049;-62
2021/05/29 03:17:50;;;;;;;13.90;7.40;;;11.40;69.50;;;;;;5031622;28;21022;-63
2021/05/29 03:20:18;;;;;;;15.60;7.57;;;11.30;69.90;;;;;;5031834;28;20079;-63
2021/05/29 03:22:44;;;;;;;14.15;7.40;;;11.30;69.80;;;;;;5031797;28;20029;-63
2021/05/29 03:25:10;;;;;;;12.07;6.85;;;11.30;69.70;;;;;;5031674;28;20048;-63
2021/05/29 03:27:36;;;;;;;13.07;7.20;;;11.30;69.80;;;;;;5031418;28;20034;-62
2021/05/29 03:30:07;;;;;;;13.27;7.82;;;11.30;69.80;;;;;;5031475;28;20387;-62
2021/05/29 03:32:33;;;;;;;17.83;8.20;;;11.30;69.90;;;;;;5031501;28;20376;-62
2021/05/29 03:34:58;;;;;;;14.50;7.15;;;11.30;69.90;;;;;;5031020;28;20017;-62
2021/05/29 03:37:24;;;;;;;12.25;7.13;;;11.20;69.70;;;;;;5030796;28;20033;-62
2021/05/29 03:39:49;;;;;;;13.95;7.53;;;11.30;69.90;;;;;;5031072;28;20075;-63
2021/05/29 03:42:15;;;;;;;13.27;7.40;;;11.30;69.80;;;;;;5031243;28;20395;-63
2021/05/29 03:44:41;;;;;;;14.70;7.78;;;11.30;70.00;;;;;;5031500;28;20028;-62
2021/05/29 03:47:06;;;;;;;9.18;6.82;;;11.30;70.00;;;;;;5031150;28;20026;-62
2021/05/29 03:49:32;;;;;;;15.27;8.45;;;11.30;69.80;;;;;;5030959;28;20060;-63
2021/05/29 03:51:57;;;;;;;16.45;7.82;;;11.30;70.00;;;;;;5031418;28;20380;-62
2021/05/29 03:54:23;;;;;;;14.60;7.95;;;11.30;69.90;;;;;;5030982;28;20030;-62
2021/05/29 03:56:48;;;;;;;14.57;7.75;;;11.30;69.70;;;;;;5030900;28;20277;-62
2021/05/29 03:59:15;;;;;;;11.18;7.35;;;11.30;69.50;;;;;;5031141;28;20013;-62
2021/05/29 04:01:41;;;;;;;11.82;6.88;;;11.40;70.00;;;;;;5029669;28;20021;-63
2021/05/29 04:04:08;;;;;;;13.68;7.70;;;11.40;69.80;;;;;;5030794;28;20026;-63
2021/05/29 04:06:33;;;;;;;13.60;8.13;;;11.30;69.60;;;;;;5030726;28;20037;-63
2021/05/29 04:08:59;;;;;;;13.95;7.70;;;11.40;69.80;;;;;;5031222;28;20021;-63
2021/05/29 04:11:24;;;;;;;13.18;7.57;;;11.40;69.60;;;;;;5030778;28;20026;-63
2021/05/29 04:13:50;;;;;;;12.95;7.80;;;11.40;69.50;;;;;;5030471;28;20025;-63
2021/05/29 04:16:15;;;;;;;13.15;7.63;;;11.50;69.50;;;;;;5030690;28;20495;-63
2021/05/29 04:18:41;;;;;;;15.00;7.40;;;11.40;69.40;;;;;;5030984;28;20430;-64
2021/05/29 04:21:06;;;;;;;12.60;7.35;;;11.50;69.80;;;;;;5030419;28;20037;-63
2021/05/29 04:23:32;;;;;;;17.15;8.43;;;11.60;69.50;;;;;;5030569;28;20035;-63
2021/05/29 04:25:58;;;;;;;13.05;8.20;;;11.60;69.20;;;;;;5030737;28;20025;-63
2021/05/29 04:28:23;;;;;;;11.82;7.75;;;11.70;68.90;;;;;;5030250;28;20495;-63
2021/05/29 04:30:49;;;;;;;12.93;7.85;;;11.70;68.90;;;;;;5030217;28;20500;-63
2021/05/29 04:33:14;;;;;;;14.60;8.70;;;11.70;68.80;;;;;;5030685;28;20018;-62
2021/05/29 04:35:40;;;;;;;15.13;8.65;;;11.80;68.60;;;;;;5030386;28;20494;-62
2021/05/29 04:38:05;;;;;;;16.48;8.80;;;11.80;68.50;;;;;;5030074;28;20121;-61
2021/05/29 04:40:31;;;;;;;17.63;8.60;;;11.80;68.30;;;;;;5029993;28;20499;-61
2021/05/29 04:42:59;;;;;;;13.70;8.38;;;11.90;68.50;;;;;;5030296;28;20025;-62
2021/05/29 04:45:25;;;;;;;18.45;8.15;;;12.00;68.20;;;;;;5030335;28;20506;-62
2021/05/29 04:47:51;;;;;;;14.57;7.95;;;12.10;67.80;;;;;;5029924;28;20030;-62
2021/05/29 04:50:17;;;;;;;14.13;7.95;;;12.10;67.40;;;;;;5029792;28;20033;-62
2021/05/29 04:52:42;;;;;;;25.15;12.60;;;12.20;67.30;;;;;;5030430;28;20056;-62
2021/05/29 04:55:09;;;;;;;22.30;9.23;;;12.20;67.10;;;;;;5029809;28;20029;-62
2021/05/29 04:57:34;;;;;;;13.02;8.60;;;12.30;67.00;;;;;;5029600;28;20018;-62
2021/05/29 05:00:00;;;;;;;13.48;8.85;;;12.40;66.50;;;;;;5029992;28;20376;-62
2021/05/29 05:02:26;;;;;;;12.50;8.00;;;12.40;66.70;;;;;;5030136;28;20100;-62
2021/05/29 05:04:51;;;;;;;11.93;8.40;;;12.50;66.60;;;;;;5029660;28;20030;-62
2021/05/29 05:07:17;;;;;;;12.35;7.63;;;12.60;66.20;;;;;;5029755;28;20029;-62
2021/05/29 05:09:42;;;;;;;17.52;9.25;;;12.70;65.40;;;;;;5029911;28;20036;-62
2021/05/29 05:12:08;;;;;;;17.80;10.18;;;12.70;64.80;;;;;;5029276;28;20103;-63
2021/05/29 05:14:34;;;;;;;25.67;9.48;;;12.80;64.50;;;;;;5011379;28;20241;-62
2021/05/29 05:16:59;;;;;;;14.25;7.88;;;12.80;64.50;;;;;;5029665;28;20133;-65
2021/05/29 05:19:25;;;;;;;11.52;6.85;;;12.90;63.90;;;;;;5029584;28;20398;-65
2021/05/29 05:21:50;;;;;;;9.65;7.75;;;13.00;63.50;;;;;;5029536;28;20266;-65
2021/05/29 05:24:16;;;;;;;8.85;6.72;;;13.00;63.30;;;;;;5029441;28;20095;-65
2021/05/29 05:26:41;;;;;;;16.58;9.63;;;13.10;63.10;;;;;;5029739;28;20488;-65
2021/05/29 05:29:07;;;;;;;18.38;8.02;;;13.20;62.90;;;;;;5029316;28;20029;-65
2021/05/29 05:31:36;;;;;;;14.40;6.60;;;13.20;62.60;;;;;;5029139;28;20055;-65
2021/05/29 05:34:07;;;;;;;10.07;6.72;;;13.30;62.50;;;;;;5028949;28;20538;-65
2021/05/29 05:36:33;;;;;;;12.18;7.00;;;13.30;62.00;;;;;;5028958;28;20080;-65
2021/05/29 05:38:59;;;;;;;11.43;6.60;;;13.40;61.70;;;;;;5028980;28;20025;-65
2021/05/29 05:41:25;;;;;;;13.73;7.57;;;13.50;61.50;;;;;;5029253;28;20030;-65
2021/05/29 05:43:50;;;;;;;9.07;6.35;;;13.50;61.60;;;;;;5029241;28;20087;-65
2021/05/29 05:46:16;;;;;;;11.50;6.93;;;13.60;61.60;;;;;;5029586;28;20029;-65
2021/05/29 05:48:42;;;;;;;10.02;7.45;;;13.70;61.20;;;;;;5029684;28;20026;-65
2021/05/29 05:51:08;;;;;;;10.23;6.35;;;13.70;60.90;;;;;;5023286;28;20139;-66
2021/05/29 05:53:33;;;;;;;13.45;6.00;;;13.80;61.10;;;;;;5020848;28;20460;-64
2021/05/29 05:56:03;;;;;;;8.38;5.18;;;13.90;60.70;;;;;;5017663;28;20489;-66
2021/05/29 05:58:30;;;;;;;7.38;5.45;;;13.90;60.40;;;;;;5018345;28;20076;-64
2021/05/29 06:00:57;;;;;;;9.43;6.03;;;13.90;60.80;;;;;;5019556;28;20504;-65
2021/05/29 06:03:22;;;;;;;12.07;5.38;;;13.90;60.90;;;;;;5017572;28;20036;-64
2021/05/29 06:05:48;;;;;;;9.07;5.90;;;13.90;60.80;;;;;;5018205;28;20034;-64
2021/05/29 06:08:13;;;;;;;9.07;6.18;;;14.00;61.00;;;;;;5019545;28;20033;-64
2021/05/29 06:10:39;;;;;;;8.05;6.25;;;14.10;61.10;;;;;;5011821;28;20032;-64
2021/05/29 06:13:07;;;;;;;15.80;6.35;;;14.20;60.80;;;;;;5029263;28;20018;-65
2021/05/29 06:19:19;;;;;;;12.35;7.03;;;14.50;60.50;;;;;;5004489;28;20044;-64
2021/05/29 06:21:13;;;;;;;10.10;6.28;;;14.70;59.80;;;;;;5000640;28;20473;-64
2021/05/29 06:23:39;;;;;;;11.63;6.15;;;14.80;59.70;;;;;;5017338;28;20033;-64
2021/05/29 06:26:05;;;;;;;10.63;7.35;;;14.90;59.30;;;;;;5018241;28;20104;-65
2021/05/29 06:28:34;;;;;;;11.57;6.78;;;15.00;59.20;;;;;;5014087;28;20105;-66
2021/05/29 06:31:00;;;;;;;10.73;7.28;;;15.10;59.10;;;;;;4975338;28;20117;-64
2021/05/29 06:33:26;;;;;;;11.00;6.43;;;15.30;58.90;;;;;;5009379;28;20105;-65
2021/05/29 06:35:51;;;;;;;9.55;5.93;;;15.50;58.30;;;;;;5008929;28;20048;-65
2021/05/29 06:38:17;;;;;;;9.85;6.18;;;15.70;57.80;;;;;;5008809;28;20448;-66
2021/05/29 06:40:42;;;;;;;7.85;5.88;;;15.90;57.40;;;;;;5009168;28;20049;-65
2021/05/29 06:43:08;;;;;;;10.15;5.75;;;16.00;57.10;;;;;;5008986;28;20033;-65
2021/05/29 06:45:35;;;;;;;9.18;5.70;;;16.10;56.70;;;;;;4975018;28;20030;-65
2021/05/29 06:48:00;;;;;;;8.65;5.72;;;16.20;56.70;;;;;;5008877;28;20550;-65
2021/05/29 06:50:26;;;;;;;6.97;5.57;;;16.20;56.60;;;;;;5008983;28;20030;-67
2021/05/29 06:52:55;;;;;;;7.78;6.00;;;16.30;56.20;;;;;;5008830;28;20026;-65
2021/05/29 07:00:49;;;;;;;7.30;5.32;;;16.60;55.30;;;;;;5009289;28;20420;-66
2021/05/29 07:03:14;;;;;;;8.25;5.00;;;16.70;55.00;;;;;;5008587;28;20025;-65
2021/05/29 07:05:40;;;;;;;6.70;5.28;;;16.80;54.60;;;;;;5005119;28;20025;-65
2021/05/29 07:08:06;;;;;;;8.35;5.05;;;16.90;54.60;;;;;;5008507;28;20034;-65
2021/05/29 07:10:31;;;;;;;7.72;4.93;;;16.90;54.40;;;;;;5008460;28;20435;-65
2021/05/29 07:12:57;;;;;;;6.85;4.35;;;16.90;54.00;;;;;;5008704;28;20471;-64
2021/05/29 07:15:27;;;;;;;8.38;4.88;;;17.00;53.20;;;;;;5008114;28;20022;-64
2021/05/29 07:17:55;;;;;;;11.17;5.83;;;17.20;52.70;;;;;;5008429;28;20488;-64
2021/05/29 07:20:20;;;;;;;9.05;4.45;;;17.40;52.60;;;;;;5008281;28;20030;-64
2021/05/29 07:22:46;;;;;;;7.22;4.80;;;17.70;52.20;;;;;;5008437;28;20021;-64
2021/05/29 07:25:12;;;;;;;6.03;4.50;;;18.00;51.70;;;;;;5008495;28;20426;-63
2021/05/29 07:27:38;;;;;;;9.48;4.45;;;18.00;51.50;;;;;;5008100;28;20045;-64
2021/05/29 07:30:07;;;;;;;4.68;3.78;;;18.20;51.00;;;;;;5007809;28;20515;-64
2021/05/29 07:32:34;;;;;;;6.22;3.67;;;18.30;50.10;;;;;;5008445;28;20463;-64
2021/05/29 07:35:00;;;;;;;8.77;4.35;;;18.40;50.10;;;;;;5009025;28;20054;-64
2021/05/29 07:37:26;;;;;;;5.93;4.20;;;18.50;50.00;;;;;;5012010;28;20200;-65
2021/05/29 07:39:52;;;;;;;11.23;4.25;;;18.80;49.70;;;;;;4978050;28;20483;-65
2021/05/29 07:42:17;;;;;;;7.97;4.05;;;19.20;48.90;;;;;;5012037;28;20358;-65
2021/05/29 07:44:43;;;;;;;6.68;4.47;;;19.30;48.40;;;;;;5012237;28;20053;-64
2021/05/29 07:47:08;;;;;;;5.32;4.10;;;19.20;48.40;;;;;;5011925;28;20388;-63
2021/05/29 07:49:34;;;;;;;4.97;3.53;;;19.20;48.30;;;;;;5011868;28;20363;-64
2021/05/29 07:51:59;;;;;;;5.25;3.63;;;19.40;48.50;;;;;;4994572;28;20038;-64
2021/05/29 07:54:25;;;;;;;5.03;3.78;;;19.80;47.30;;;;;;5011972;28;20105;-64
2021/05/29 07:56:51;;;;;;;5.63;3.45;;;20.00;46.30;;;;;;5007685;28;20025;-64
2021/05/29 07:59:18;;;;;;;6.28;3.72;;;20.20;46.00;;;;;;4993375;28;20022;-64
2021/05/29 08:01:43;;;;;;;7.40;3.92;;;20.60;45.00;;;;;;5010222;28;20038;-65
2021/05/29 08:04:12;;;;;;;6.85;4.00;;;20.80;44.40;;;;;;4994053;28;20153;-65
2021/05/29 08:06:38;;;;;;;6.90;4.05;;;20.50;43.60;;;;;;5011595;28;20022;-62
2021/05/29 08:09:06;;;;;;;9.07;3.83;;;20.20;44.70;;;;;;5011570;28;20070;-64
2021/05/29 08:11:32;;;;;;;4.53;3.40;;;20.00;44.90;;;;;;5011347;28;20161;-65
2021/05/29 08:13:57;;;;;;;7.13;4.40;;;20.30;44.40;;;;;;5017030;28;20074;-64
2021/05/29 08:16:23;;;;;;;7.32;3.97;;;19.90;44.30;;;;;;5022158;28;20110;-64
2021/05/29 08:18:50;;;;;;;6.15;4.50;;;20.40;44.40;;;;;;5019661;28;20022;-64
2021/05/29 08:21:15;;;;;;;8.60;3.97;;;20.70;42.20;;;;;;5021004;28;20026;-64
2021/05/29 08:23:41;;;;;;;8.15;3.33;;;20.90;41.40;;;;;;5021805;28;20033;-65
2021/05/29 08:26:07;;;;;;;5.43;3.47;;;21.30;40.50;;;;;;5019019;28;20025;-64
2021/05/29 08:28:33;;;;;;;4.80;2.75;;;21.40;39.20;;;;;;5017472;28;20488;-64
2021/05/29 08:30:59;;;;;;;4.07;2.72;;;21.40;38.10;;;;;;5020386;28;20446;-65
2021/05/29 08:33:24;;;;;;;6.18;2.75;;;21.50;38.10;;;;;;5030779;28;20104;-64
2021/05/29 08:35:50;;;;;;;5.28;3.00;;;21.70;37.10;;;;;;5013564;28;20023;-64
2021/05/29 08:38:16;;;;;;;4.90;3.10;;;21.60;37.70;;;;;;5031136;28;20022;-65
2021/05/29 08:40:41;;;;;;;4.97;3.53;;;22.00;37.20;;;;;;5031172;28;20049;-65
2021/05/29 08:43:08;;;;;;;3.45;2.95;;;22.10;37.30;;;;;;5029873;28;20518;-64
2021/05/29 08:45:33;;;;;;;4.78;2.97;;;21.50;37.40;;;;;;5030314;28;20021;-64
2021/05/29 08:47:59;;;;;;;13.10;3.22;;;21.60;37.60;;;;;;5029922;28;20427;-64
2021/05/29 08:50:24;;;;;;;3.92;2.58;;;21.70;36.80;;;;;;5030366;28;20037;-64
2021/05/29 08:52:50;;;;;;;4.45;2.72;;;21.90;36.50;;;;;;5019561;28;20021;-64
2021/05/29 08:55:16;;;;;;;5.50;2.70;;;22.10;36.20;;;;;;5023212;28;20483;-65
2021/05/29 08:57:43;;;;;;;6.85;2.75;;;22.60;35.70;;;;;;5030927;28;20037;-65
2021/05/29 09:00:10;;;;;;;6.22;4.45;;;22.80;34.80;;;;;;5030205;28;20035;-67
2021/05/29 09:02:58;;;;;;;2.85;2.20;;;22.80;34.50;;;;;;5030308;28;20124;-66
2021/05/29 09:05:51;;;;;;;3.90;2.20;;;22.80;33.40;;;;;;5012845;28;20036;-66
2021/05/29 09:08:17;;;;;;;6.78;2.60;;;22.80;33.60;;;;;;5030380;28;20047;-67
2021/05/29 09:10:49;;;;;;;4.07;2.45;;;22.80;34.40;;;;;;5030779;28;20025;-66
2021/05/29 09:13:19;;;;;;;7.28;3.20;;;22.90;34.50;;;;;;5030572;28;20091;-66
2021/05/29 09:15:45;;;;;;;5.32;3.20;;;23.10;35.30;;;;;;5030597;28;20029;-66
2021/05/29 09:18:45;;;;;;;7.78;3.55;;;23.60;35.20;;;;;;5030552;28;20402;-65
2021/05/29 09:21:27;;;;;;;6.45;3.63;;;23.80;34.60;;;;;;5030035;28;20071;-66
2021/05/29 09:24:03;;;;;;;4.32;2.70;;;23.80;34.70;;;;;;5029906;28;20365;-68
2021/05/29 09:26:54;;;;;;;4.30;2.92;;;23.50;34.60;;;;;;5029945;28;20040;-67
2021/05/29 09:29:24;;;;;;;4.53;3.15;;;23.10;35.20;;;;;;5028688;28;20021;-66
2021/05/29 09:32:00;;;;;;;4.90;2.85;;;23.50;35.20;;;;;;5029269;28;20037;-66
2021/05/29 09:34:42;;;;;;;11.35;4.03;;;24.10;35.00;;;;;;5028046;28;20032;-67
2021/05/29 09:37:12;;;;;;;4.53;3.20;;;23.80;34.30;;;;;;5027267;28;20029;-65
2021/05/29 09:39:38;;;;;;;5.80;3.77;;;24.40;34.50;;;;;;5029562;28;20124;-65
2021/05/29 09:42:05;;;;;;;15.07;3.42;;;24.00;34.00;;;;;;5029499;28;20029;-66
2021/05/29 09:44:31;;;;;;;6.85;4.32;;;23.40;35.10;;;;;;5028270;28;20033;-67
2021/05/29 09:46:58;;;;;;;7.45;3.90;;;23.20;35.50;;;;;;5029414;28;20108;-65
2021/05/29 09:49:44;;;;;;;6.95;3.60;;;23.20;36.00;;;;;;5029124;28;20022;-65
2021/05/29 09:52:32;;;;;;;4.82;3.05;;;23.20;35.80;;;;;;5029371;28;20511;-65
2021/05/29 09:55:13;;;;;;;6.07;4.30;;;23.20;35.00;;;;;;5029114;28;20087;-65
2021/05/29 09:57:59;;;;;;;6.32;3.35;;;22.40;35.40;;;;;;5011347;28;20036;-66
2021/05/29 10:00:43;;;;;;;4.43;3.22;;;22.80;35.40;;;;;;5029055;28;20030;-68
2021/05/29 10:03:09;;;;;;;9.23;4.10;;;22.80;35.70;;;;;;5028432;28;20021;-65
2021/05/29 10:05:36;;;;;;;5.68;3.72;;;23.00;35.60;;;;;;5028861;28;20440;-66
2021/05/29 10:08:02;;;;;;;4.32;3.13;;;23.40;35.30;;;;;;5029053;28;20068;-66
2021/05/29 10:10:28;;;;;;;6.57;3.38;;;23.40;35.10;;;;;;5029197;28;20026;-66
2021/05/29 10:12:53;;;;;;;5.93;3.78;;;23.60;35.30;;;;;;5028687;28;20147;-66
2021/05/29 10:15:19;;;;;;;7.50;4.00;;;23.20;35.60;;;;;;5028530;28;20040;-66
2021/05/29 10:17:47;;;;;;;6.10;3.97;;;23.10;35.70;;;;;;5028647;28;20029;-66
2021/05/29 10:20:14;;;;;;;7.90;4.30;;;23.40;35.90;;;;;;5011188;28;20021;-66
2021/05/29 10:22:39;;;;;;;7.00;5.13;;;23.50;35.30;;;;;;5028580;28;20494;-68
2021/05/29 10:25:12;;;;;;;9.68;5.03;;;23.10;35.90;;;;;;5028429;28;20397;-68
2021/05/29 10:27:38;;;;;;;7.38;4.63;;;22.80;35.60;;;;;;5028526;28;20053;-67
2021/05/29 10:30:06;;;;;;;9.30;4.28;;;23.10;35.70;;;;;;5028433;28;20759;-66
2021/05/29 10:32:31;;;;;;;9.70;4.57;;;23.20;35.10;;;;;;5028480;28;20036;-68
2021/05/29 10:35:08;;;;;;;6.50;4.13;;;23.30;34.70;;;;;;5011367;28;20026;-68
2021/05/29 10:37:41;;;;;;;7.13;4.53;;;23.70;35.30;;;;;;5028335;28;20406;-68
2021/05/29 10:40:41;;;;;;;7.03;4.50;;;23.80;34.50;;;;;;5028200;28;20061;-66
2021/05/29 10:43:19;;;;;;;10.77;4.40;;;24.50;34.40;;;;;;5018335;28;20048;-66
2021/05/29 10:45:51;;;;;;;5.88;4.00;;;24.50;33.60;;;;;;5028585;28;20079;-66
2021/05/29 10:48:23;;;;;;;5.50;4.10;;;24.70;33.50;;;;;;5027884;28;20102;-67
2021/05/29 10:53:52;;;;;;;6.25;4.47;;;24.60;33.10;;;;;;5028048;28;20482;-67
2021/05/29 10:56:21;;;;;;;11.27;5.38;;;24.60;33.90;;;;;;5025866;28;20018;-67
2021/05/29 10:59:05;;;;;;;10.15;4.68;;;24.50;34.20;;;;;;5027726;28;20022;-65
2021/05/29 11:04:11;;;;;;;;;;;24.60;33.50;;;;;;5028358;28;20534;-67
2021/05/29 11:06:36;;;;;;;10.43;5.50;;;24.10;33.50;;;;;;5028341;28;19905;-67
2021/05/29 11:09:02;;;;;;;7.40;5.25;;;23.40;34.50;;;;;;5027844;28;20104;-67
2021/05/29 11:11:46;;;;;;;5.75;4.97;;;23.10;35.00;;;;;;5018711;28;20026;-67
2021/05/29 11:14:15;;;;;;;7.97;4.68;;;22.50;35.70;;;;;;5021274;28;20022;-67
2021/05/29 11:16:47;;;;;;;7.22;5.13;;;22.40;35.20;;;;;;5027997;28;20018;-67
2021/05/29 11:19:15;;;;;;;6.97;5.90;;;22.40;35.50;;;;;;5021041;28;20033;-67
2021/05/29 11:22:09;;;;;;;10.32;6.30;;;22.90;35.70;;;;;;5032018;28;20033;-65
2021/05/29 11:24:53;;;;;;;6.93;5.78;;;23.60;34.90;;;;;;5029243;28;20072;-64
2021/05/29 11:27:23;;;;;;;6.68;5.13;;;23.90;34.80;;;;;;5015031;28;20662;-64
2021/05/29 11:30:14;;;;;;;7.95;6.35;;;23.80;35.00;;;;;;5014167;28;20092;-66
2021/05/29 11:35:46;;;;;;;10.25;6.13;;;23.50;34.50;;;;;;5012089;28;20036;-65
2021/05/29 11:38:46;;;;;;;6.72;5.65;;;23.40;34.90;;;;;;5017012;28;20037;-66
2021/05/29 11:41:16;;;;;;;9.82;6.18;;;23.40;35.40;;;;;;5031668;28;20078;-65
2021/05/29 11:43:49;;;;;;;9.40;5.43;;;23.60;34.80;;;;;;5010781;28;20030;-68
2021/05/29 11:46:16;;;;;;;10.52;6.93;;;23.30;35.10;;;;;;5013157;28;20041;-67
2021/05/29 11:48:43;;;;;;;8.55;6.60;;;23.20;35.70;;;;;;5030398;28;20021;-68
2021/05/29 11:51:10;;;;;;;9.68;6.63;;;23.40;35.70;;;;;;5030124;28;20032;-67
2021/05/29 11:53:49;;;;;;;10.48;6.75;;;23.90;35.30;;;;;;5029701;28;20528;-64
2021/05/29 11:56:17;;;;;;;8.98;6.32;;;24.30;34.70;;;;;;5030639;28;20507;-67
2021/05/29 11:58:47;;;;;;;9.48;6.60;;;24.90;34.40;;;;;;5030609;28;20030;-66
2021/05/29 12:01:14;;;;;;;12.45;7.78;;;25.10;33.70;;;;;;5030766;28;20100;-67
2021/05/29 12:03:50;;;;;;;8.40;5.45;;;25.10;33.70;;;;;;5030443;28;20503;-67
2021/05/29 12:06:36;;;;;;;8.13;5.45;;;24.90;33.30;;;;;;5029984;28;20112;-66
2021/05/29 12:09:07;;;;;;;7.00;5.25;;;24.20;34.10;;;;;;5030063;28;20431;-66
2021/05/29 12:11:33;;;;;;;15.00;7.75;;;24.30;34.10;;;;;;5028996;28;20029;-68
2021/05/29 12:13:59;;;;;;;10.07;5.60;;;24.30;34.30;;;;;;5030016;28;20025;-67
2021/05/29 12:16:33;;;;;;;11.40;5.05;;;23.80;34.70;;;;;;5029889;28;20033;-67
2021/05/29 12:18:58;;;;;;;9.02;4.82;;;23.70;34.80;;;;;;5030878;28;20467;-68
2021/05/29 12:21:24;;;;;;;7.93;4.40;;;23.70;35.20;;;;;;5030487;28;20079;-67
2021/05/29 12:23:57;;;;;;;7.65;5.00;;;24.70;34.00;;;;;;5011558;28;20028;-68
2021/05/29 12:26:23;;;;;;;11.02;5.03;;;24.90;32.90;;;;;;5027541;28;20053;-66
2021/05/29 12:28:51;;;;;;;41.50;27.58;;;24.90;33.00;;;;;;5030247;28;20079;-66
2021/05/29 12:31:22;;;;;;;10.63;5.82;;;24.70;32.60;;;;;;5029653;28;20025;-67
2021/05/29 12:34:00;;;;;;;7.95;5.93;;;24.60;32.80;;;;;;5028021;28;20056;-67
2021/05/29 12:36:26;;;;;;;7.72;5.30;;;23.90;34.20;;;;;;5012510;28;20029;-65
2021/05/29 12:39:00;;;;;;;13.68;6.82;;;22.90;35.40;;;;;;5029609;28;20075;-66
2021/05/29 12:41:38;;;;;;;7.72;4.97;;;22.90;35.80;;;;;;5030319;28;20037;-67
2021/05/29 12:44:10;;;;;;;7.78;4.88;;;23.40;35.40;;;;;;5009424;28;20322;-67
2021/05/29 12:46:35;;;;;;;5.38;4.07;;;24.20;34.50;;;;;;5029213;28;20029;-67
2021/05/29 12:49:05;;;;;;;7.88;4.97;;;24.50;34.10;;;;;;5029184;28;20575;-66
2021/05/29 12:51:43;;;;;;;6.65;4.90;;;23.80;34.40;;;;;;5028468;28;20033;-66
2021/05/29 12:54:09;;;;;;;13.75;11.57;;;23.60;35.00;;;;;;5029091;28;20017;-66
2021/05/29 12:56:35;;;;;;;5.63;4.05;;;23.30;35.30;;;;;;5029034;28;20029;-66
2021/05/29 12:59:07;;;;;;;9.35;4.47;;;23.40;35.30;;;;;;5029709;28;20144;-66
2021/05/29 13:01:52;;;;;;;7.82;4.97;;;24.00;34.60;;;;;;5029600;28;20022;-67
2021/05/29 13:12:26;;;;;;;7.63;4.50;;;24.70;33.80;;;;;;5029722;28;20024;-65
2021/05/29 13:14:52;;;;;;;8.05;4.07;;;24.40;34.00;;;;;;5029340;28;20476;-67